Terminal Aerodrome Forecast
Issued by NWS Sioux Falls, SD

Home | Current Version | Previous Version | Text Only | Print | Product List | Glossary On
Versions: 1 2 3 4 5 6 7 8 9 10 11 12 13 14 15 16 17 18 19 20 21 22 23 24 25 26 27 28 29 30
000
FTUS43 KFSD 212339
TAFSUX
TAF
KSUX 212339Z 2200/2224 02011KT P6SM SCT080
     FM220500 08011KT 6SM -SHRA VCTS BKN060CB
     FM221000 02011KT P6SM -SHRA SCT025 OVC050
     FM221700 35018G28KT P6SM VCSH OVC010=

USA.gov is the U.S. government's official web portal to all federal, state and local government web resources and services.